sensor_id;sensor_type;location;lat;lon;timestamp;pressure;altitude;pressure_sealevel;temperature
63009;BMP280;49099;28.428;-16.488;2022-08-21T00:00:17;98603.41;;;24.03
63009;BMP280;49099;28.428;-16.488;2022-08-21T00:02:52;98595.44;;;23.92
63009;BMP280;49099;28.428;-16.488;2022-08-21T00:05:21;98587.44;;;23.86
63009;BMP280;49099;28.428;-16.488;2022-08-21T00:07:48;98582.81;;;23.81
63009;BMP280;49099;28.428;-16.488;2022-08-21T00:10:16;98591.41;;;23.80
63009;BMP280;49099;28.428;-16.488;2022-08-21T00:12:43;98575.84;;;23.73
63009;BMP280;49099;28.428;-16.488;2022-08-21T00:15:15;98581.94;;;23.68
63009;BMP280;49099;28.428;-16.488;2022-08-21T00:17:43;98581.28;;;23.62
63009;BMP280;49099;28.428;-16.488;2022-08-21T00:20:12;98579.34;;;23.57
63009;BMP280;49099;28.428;-16.488;2022-08-21T00:22:39;98575.22;;;23.56
63009;BMP280;49099;28.428;-16.488;2022-08-21T00:25:08;98579.13;;;23.55
63009;BMP280;49099;28.428;-16.488;2022-08-21T00:27:36;98569.88;;;23.50
63009;BMP280;49099;28.428;-16.488;2022-08-21T00:30:05;98552.84;;;23.48
63009;BMP280;49099;28.428;-16.488;2022-08-21T00:32:33;98561.09;;;23.50
63009;BMP280;49099;28.428;-16.488;2022-08-21T00:35:04;98548.47;;;23.45
63009;BMP280;49099;28.428;-16.488;2022-08-21T00:37:31;98552.19;;;23.36
63009;BMP280;49099;28.428;-16.488;2022-08-21T00:40:00;98542.22;;;23.31
63009;BMP280;49099;28.428;-16.488;2022-08-21T00:42:29;98541.00;;;23.32
63009;BMP280;49099;28.428;-16.488;2022-08-21T00:44:57;98533.91;;;23.35
63009;BMP280;49099;28.428;-16.488;2022-08-21T00:47:24;98529.00;;;23.39
63009;BMP280;49099;28.428;-16.488;2022-08-21T00:49:52;98515.59;;;23.39
63009;BMP280;49099;28.428;-16.488;2022-08-21T00:52:22;98514.56;;;23.47
63009;BMP280;49099;28.428;-16.488;2022-08-21T00:54:51;98511.16;;;23.52
63009;BMP280;49099;28.428;-16.488;2022-08-21T00:57:29;98509.63;;;23.57
63009;BMP280;49099;28.428;-16.488;2022-08-21T01:00:01;98495.47;;;23.62
63009;BMP280;49099;28.428;-16.488;2022-08-21T01:02:28;98506.84;;;23.68
63009;BMP280;49099;28.428;-16.488;2022-08-21T01:04:56;98502.69;;;23.72
63009;BMP280;49099;28.428;-16.488;2022-08-21T01:07:25;98491.41;;;23.79
63009;BMP280;49099;28.428;-16.488;2022-08-21T01:09:53;98494.28;;;23.87
63009;BMP280;49099;28.428;-16.488;2022-08-21T01:12:20;98491.78;;;23.94
63009;BMP280;49099;28.428;-16.488;2022-08-21T01:14:47;98499.75;;;24.00
63009;BMP280;49099;28.428;-16.488;2022-08-21T01:17:15;98490.94;;;24.05
63009;BMP280;49099;28.428;-16.488;2022-08-21T01:19:43;98479.91;;;24.08
63009;BMP280;49099;28.428;-16.488;2022-08-21T01:22:10;98482.34;;;24.12
63009;BMP280;49099;28.428;-16.488;2022-08-21T01:24:38;98479.84;;;24.14
63009;BMP280;49099;28.428;-16.488;2022-08-21T01:27:06;98476.16;;;24.17
63009;BMP280;49099;28.428;-16.488;2022-08-21T01:29:46;98464.63;;;24.22
63009;BMP280;49099;28.428;-16.488;2022-08-21T01:32:17;98468.56;;;24.21
63009;BMP280;49099;28.428;-16.488;2022-08-21T01:34:47;98459.25;;;24.22
63009;BMP280;49099;28.428;-16.488;2022-08-21T01:37:16;98464.13;;;24.23
63009;BMP280;49099;28.428;-16.488;2022-08-21T01:39:45;98458.06;;;24.23
63009;BMP280;49099;28.428;-16.488;2022-08-21T01:42:13;98461.94;;;24.22
63009;BMP280;49099;28.428;-16.488;2022-08-21T01:44:41;98448.09;;;24.18
63009;BMP280;49099;28.428;-16.488;2022-08-21T01:47:12;98446.66;;;24.17
63009;BMP280;49099;28.428;-16.488;2022-08-21T01:49:40;98446.44;;;24.15
63009;BMP280;49099;28.428;-16.488;2022-08-21T01:52:08;98443.53;;;24.13
63009;BMP280;49099;28.428;-16.488;2022-08-21T01:54:36;98443.28;;;24.11
63009;BMP280;49099;28.428;-16.488;2022-08-21T01:57:04;98444.53;;;24.10
63009;BMP280;49099;28.428;-16.488;2022-08-21T01:59:32;98442.63;;;24.05
63009;BMP280;49099;28.428;-16.488;2022-08-21T02:01:59;98431.47;;;24.01
63009;BMP280;49099;28.428;-16.488;2022-08-21T02:04:27;98428.31;;;23.97
63009;BMP280;49099;28.428;-16.488;2022-08-21T02:06:54;98433.91;;;23.99
63009;BMP280;49099;28.428;-16.488;2022-08-21T02:09:21;98431.72;;;23.97
63009;BMP280;49099;28.428;-16.488;2022-08-21T02:11:50;98422.75;;;23.95
63009;BMP280;49099;28.428;-16.488;2022-08-21T02:14:18;98418.63;;;23.88
63009;BMP280;49099;28.428;-16.488;2022-08-21T02:16:59;98419.19;;;23.81
63009;BMP280;49099;28.428;-16.488;2022-08-21T02:19:31;98428.03;;;23.76
63009;BMP280;49099;28.428;-16.488;2022-08-21T02:22:08;98431.44;;;23.77
63009;BMP280;49099;28.428;-16.488;2022-08-21T02:24:36;98430.00;;;23.76
63009;BMP280;49099;28.428;-16.488;2022-08-21T02:27:22;98428.78;;;23.77
63009;BMP280;49099;28.428;-16.488;2022-08-21T02:29:53;98426.28;;;23.79
63009;BMP280;49099;28.428;-16.488;2022-08-21T02:32:20;98431.66;;;23.79
63009;BMP280;49099;28.428;-16.488;2022-08-21T02:34:48;98436.03;;;23.82
63009;BMP280;49099;28.428;-16.488;2022-08-21T02:37:16;98426.97;;;23.85
63009;BMP280;49099;28.428;-16.488;2022-08-21T02:39:43;98426.69;;;23.88
63009;BMP280;49099;28.428;-16.488;2022-08-21T02:42:10;98422.03;;;23.94
63009;BMP280;49099;28.428;-16.488;2022-08-21T02:44:37;98423.97;;;23.94
63009;BMP280;49099;28.428;-16.488;2022-08-21T02:47:04;98426.09;;;24.01
63009;BMP280;49099;28.428;-16.488;2022-08-21T02:49:31;98419.69;;;24.04
63009;BMP280;49099;28.428;-16.488;2022-08-21T02:51:59;98417.75;;;24.04
63009;BMP280;49099;28.428;-16.488;2022-08-21T02:54:26;98423.13;;;24.04
63009;BMP280;49099;28.428;-16.488;2022-08-21T02:56:53;98416.53;;;24.05
63009;BMP280;49099;28.428;-16.488;2022-08-21T02:59:20;98414.81;;;24.08
63009;BMP280;49099;28.428;-16.488;2022-08-21T03:01:47;98421.38;;;24.07
63009;BMP280;49099;28.428;-16.488;2022-08-21T03:04:15;98417.25;;;24.06
63009;BMP280;49099;28.428;-16.488;2022-08-21T03:06:42;98426.25;;;24.08
63009;BMP280;49099;28.428;-16.488;2022-08-21T03:09:09;98419.44;;;24.07
63009;BMP280;49099;28.428;-16.488;2022-08-21T03:11:36;98420.44;;;24.04
63009;BMP280;49099;28.428;-16.488;2022-08-21T03:14:04;98419.25;;;24.00
63009;BMP280;49099;28.428;-16.488;2022-08-21T03:16:31;98419.81;;;23.93
63009;BMP280;49099;28.428;-16.488;2022-08-21T03:19:00;98411.78;;;23.93
63009;BMP280;49099;28.428;-16.488;2022-08-21T03:21:27;98410.56;;;23.94
63009;BMP280;49099;28.428;-16.488;2022-08-21T03:23:55;98403.97;;;23.95
63009;BMP280;49099;28.428;-16.488;2022-08-21T03:26:22;98404.91;;;23.97
63009;BMP280;49099;28.428;-16.488;2022-08-21T03:28:53;98405.09;;;23.99
63009;BMP280;49099;28.428;-16.488;2022-08-21T03:31:20;98407.78;;;23.99
63009;BMP280;49099;28.428;-16.488;2022-08-21T03:33:48;98403.72;;;23.93
63009;BMP280;49099;28.428;-16.488;2022-08-21T03:36:15;98401.84;;;23.88
63009;BMP280;49099;28.428;-16.488;2022-08-21T03:38:42;98406.75;;;23.84
63009;BMP280;49099;28.428;-16.488;2022-08-21T03:41:10;98406.53;;;23.82
63009;BMP280;49099;28.428;-16.488;2022-08-21T03:43:37;98413.13;;;23.81
63009;BMP280;49099;28.428;-16.488;2022-08-21T03:46:05;98404.06;;;23.84
63009;BMP280;49099;28.428;-16.488;2022-08-21T03:48:34;98389.66;;;23.87
63009;BMP280;49099;28.428;-16.488;2022-08-21T03:51:01;98403.28;;;23.89
63009;BMP280;49099;28.428;-16.488;2022-08-21T03:53:29;98393.78;;;23.88
63009;BMP280;49099;28.428;-16.488;2022-08-21T03:55:57;98397.47;;;23.85
63009;BMP280;49099;28.428;-16.488;2022-08-21T03:58:26;98388.47;;;23.82
63009;BMP280;49099;28.428;-16.488;2022-08-21T04:00:56;98389.28;;;23.77
63009;BMP280;49099;28.428;-16.488;2022-08-21T04:03:24;98403.19;;;23.76
63009;BMP280;49099;28.428;-16.488;2022-08-21T04:05:51;98399.03;;;23.75
63009;BMP280;49099;28.428;-16.488;2022-08-21T04:08:19;98395.84;;;23.76
63009;BMP280;49099;28.428;-16.488;2022-08-21T04:10:50;98397.81;;;23.76
63009;BMP280;49099;28.428;-16.488;2022-08-21T04:13:18;98399.03;;;23.75
63009;BMP280;49099;28.428;-16.488;2022-08-21T04:15:45;98405.88;;;23.76
63009;BMP280;49099;28.428;-16.488;2022-08-21T04:18:12;98403.94;;;23.71
63009;BMP280;49099;28.428;-16.488;2022-08-21T04:20:41;98398.38;;;23.69
63009;BMP280;49099;28.428;-16.488;2022-08-21T04:23:15;98389.59;;;23.68
63009;BMP280;49099;28.428;-16.488;2022-08-21T04:25:51;98401.28;;;23.71
63009;BMP280;49099;28.428;-16.488;2022-08-21T04:28:20;98404.69;;;23.71
63009;BMP280;49099;28.428;-16.488;2022-08-21T04:30:50;98398.28;;;23.74
63009;BMP280;49099;28.428;-16.488;2022-08-21T04:33:17;98397.03;;;23.81
63009;BMP280;49099;28.428;-16.488;2022-08-21T04:35:44;98398.91;;;23.86
63009;BMP280;49099;28.428;-16.488;2022-08-21T04:38:11;98391.59;;;23.86
63009;BMP280;49099;28.428;-16.488;2022-08-21T04:40:38;98388.63;;;23.90
63009;BMP280;49099;28.428;-16.488;2022-08-21T04:43:08;98388.63;;;23.90
63009;BMP280;49099;28.428;-16.488;2022-08-21T04:45:42;98399.59;;;23.92
63009;BMP280;49099;28.428;-16.488;2022-08-21T04:48:12;98402.28;;;23.92
63009;BMP280;49099;28.428;-16.488;2022-08-21T04:51:01;98401.03;;;23.93
63009;BMP280;49099;28.428;-16.488;2022-08-21T04:56:07;98409.53;;;23.97
63009;BMP280;49099;28.428;-16.488;2022-08-21T04:58:36;98411.94;;;24.00
63009;BMP280;49099;28.428;-16.488;2022-08-21T05:01:07;98411.66;;;24.04
63009;BMP280;49099;28.428;-16.488;2022-08-21T05:03:36;98408.25;;;24.03
63009;BMP280;49099;28.428;-16.488;2022-08-21T05:06:05;98410.00;;;24.01
63009;BMP280;49099;28.428;-16.488;2022-08-21T05:08:33;98408.31;;;23.98
63009;BMP280;49099;28.428;-16.488;2022-08-21T05:11:02;98412.44;;;23.99
63009;BMP280;49099;28.428;-16.488;2022-08-21T05:13:29;98413.16;;;23.99
63009;BMP280;49099;28.428;-16.488;2022-08-21T05:15:57;98421.00;;;23.97
63009;BMP280;49099;28.428;-16.488;2022-08-21T05:18:25;98417.31;;;24.00
63009;BMP280;49099;28.428;-16.488;2022-08-21T05:20:52;98419.25;;;24.00
63009;BMP280;49099;28.428;-16.488;2022-08-21T05:23:20;98416.56;;;24.00
63009;BMP280;49099;28.428;-16.488;2022-08-21T05:25:47;98413.91;;;24.00
63009;BMP280;49099;28.428;-16.488;2022-08-21T05:28:14;98418.25;;;24.03
63009;BMP280;49099;28.428;-16.488;2022-08-21T05:30:41;98415.38;;;24.01
63009;BMP280;49099;28.428;-16.488;2022-08-21T05:33:08;98419.50;;;24.02
63009;BMP280;49099;28.428;-16.488;2022-08-21T05:35:36;98425.06;;;24.04
63009;BMP280;49099;28.428;-16.488;2022-08-21T05:38:05;98423.63;;;24.03
63009;BMP280;49099;28.428;-16.488;2022-08-21T05:40:43;98428.78;;;24.01
63009;BMP280;49099;28.428;-16.488;2022-08-21T05:43:10;98432.91;;;24.02
63009;BMP280;49099;28.428;-16.488;2022-08-21T05:45:37;98428.25;;;24.02
63009;BMP280;49099;28.428;-16.488;2022-08-21T05:48:12;98430.44;;;24.04
63009;BMP280;49099;28.428;-16.488;2022-08-21T05:50:40;98435.09;;;24.03
63009;BMP280;49099;28.428;-16.488;2022-08-21T05:53:08;98435.81;;;24.04
63009;BMP280;49099;28.428;-16.488;2022-08-21T05:55:37;98439.72;;;24.03
63009;BMP280;49099;28.428;-16.488;2022-08-21T05:58:12;98451.19;;;24.03
63009;BMP280;49099;28.428;-16.488;2022-08-21T06:00:39;98450.44;;;24.03
63009;BMP280;49099;28.428;-16.488;2022-08-21T06:03:19;98453.38;;;24.05
63009;BMP280;49099;28.428;-16.488;2022-08-21T06:05:47;98462.16;;;24.05
63009;BMP280;49099;28.428;-16.488;2022-08-21T06:08:16;98460.88;;;24.06
63009;BMP280;49099;28.428;-16.488;2022-08-21T06:10:45;98464.84;;;24.05
63009;BMP280;49099;28.428;-16.488;2022-08-21T06:13:14;98469.47;;;24.05
63009;BMP280;49099;28.428;-16.488;2022-08-21T06:15:41;98476.13;;;23.98
63009;BMP280;49099;28.428;-16.488;2022-08-21T06:18:09;98488.38;;;23.94
63009;BMP280;49099;28.428;-16.488;2022-08-21T06:20:36;98489.13;;;23.89
63009;BMP280;49099;28.428;-16.488;2022-08-21T06:23:04;98485.94;;;23.90
63009;BMP280;49099;28.428;-16.488;2022-08-21T06:25:31;98490.81;;;23.92
63009;BMP280;49099;28.428;-16.488;2022-08-21T06:28:10;98485.94;;;23.90
63009;BMP280;49099;28.428;-16.488;2022-08-21T06:30:38;98492.03;;;23.91
63009;BMP280;49099;28.428;-16.488;2022-08-21T06:33:06;98494.72;;;23.91
63009;BMP280;49099;28.428;-16.488;2022-08-21T06:35:34;98496.41;;;23.94
63009;BMP280;49099;28.428;-16.488;2022-08-21T06:38:03;98506.34;;;23.99
63009;BMP280;49099;28.428;-16.488;2022-08-21T06:40:30;98509.47;;;24.03
63009;BMP280;49099;28.428;-16.488;2022-08-21T06:43:14;98502.13;;;24.09
63009;BMP280;49099;28.428;-16.488;2022-08-21T06:45:42;98515.75;;;24.11
63009;BMP280;49099;28.428;-16.488;2022-08-21T06:48:10;98518.66;;;24.13
63009;BMP280;49099;28.428;-16.488;2022-08-21T06:50:43;98524.75;;;24.13
63009;BMP280;49099;28.428;-16.488;2022-08-21T06:53:15;98526.22;;;24.14
63009;BMP280;49099;28.428;-16.488;2022-08-21T06:55:43;98529.84;;;24.17
63009;BMP280;49099;28.428;-16.488;2022-08-21T06:58:10;98524.03;;;24.13
63009;BMP280;49099;28.428;-16.488;2022-08-21T07:00:40;98534.31;;;24.09
63009;BMP280;49099;28.428;-16.488;2022-08-21T07:03:16;98543.59;;;24.08
63009;BMP280;49099;28.428;-16.488;2022-08-21T07:05:43;98547.00;;;24.08
63009;BMP280;49099;28.428;-16.488;2022-08-21T07:08:10;98546.22;;;24.13
63009;BMP280;49099;28.428;-16.488;2022-08-21T07:10:37;98551.31;;;24.17
63009;BMP280;49099;28.428;-16.488;2022-08-21T07:13:05;98551.09;;;24.15
63009;BMP280;49099;28.428;-16.488;2022-08-21T07:15:32;98554.22;;;24.19
63009;BMP280;49099;28.428;-16.488;2022-08-21T07:18:00;98558.56;;;24.22
63009;BMP280;49099;28.428;-16.488;2022-08-21T07:20:29;98552.22;;;24.25
63009;BMP280;49099;28.428;-16.488;2022-08-21T07:22:59;98560.94;;;24.31
63009;BMP280;49099;28.428;-16.488;2022-08-21T07:25:27;98563.88;;;24.33
63009;BMP280;49099;28.428;-16.488;2022-08-21T07:27:55;98575.31;;;24.33
63009;BMP280;49099;28.428;-16.488;2022-08-21T07:30:23;98571.38;;;24.34
63009;BMP280;49099;28.428;-16.488;2022-08-21T07:32:51;98581.84;;;24.38
63009;BMP280;49099;28.428;-16.488;2022-08-21T07:35:19;98585.22;;;24.44
63009;BMP280;49099;28.428;-16.488;2022-08-21T07:37:46;98592.94;;;24.53
63009;BMP280;49099;28.428;-16.488;2022-08-21T07:40:14;98600.22;;;24.58
63009;BMP280;49099;28.428;-16.488;2022-08-21T07:42:44;98596.97;;;24.65
63009;BMP280;49099;28.428;-16.488;2022-08-21T07:45:14;98606.44;;;24.71
63009;BMP280;49099;28.428;-16.488;2022-08-21T07:47:42;98605.63;;;24.76
63009;BMP280;49099;28.428;-16.488;2022-08-21T07:50:11;98611.94;;;24.79
63009;BMP280;49099;28.428;-16.488;2022-08-21T07:52:39;98620.44;;;24.83
63009;BMP280;49099;28.428;-16.488;2022-08-21T07:55:11;98620.69;;;24.85
63009;BMP280;49099;28.428;-16.488;2022-08-21T07:57:39;98624.75;;;24.91
63009;BMP280;49099;28.428;-16.488;2022-08-21T08:00:09;98624.75;;;24.91
63009;BMP280;49099;28.428;-16.488;2022-08-21T08:02:36;98641.38;;;24.90
63009;BMP280;49099;28.428;-16.488;2022-08-21T08:05:07;98640.34;;;24.93
63009;BMP280;49099;28.428;-16.488;2022-08-21T08:07:35;98635.91;;;24.95
63009;BMP280;49099;28.428;-16.488;2022-08-21T08:10:04;98636.16;;;24.97
63009;BMP280;49099;28.428;-16.488;2022-08-21T08:12:33;98639.78;;;25.00
63009;BMP280;49099;28.428;-16.488;2022-08-21T08:15:01;98634.88;;;25.04
63009;BMP280;49099;28.428;-16.488;2022-08-21T08:17:29;98629.94;;;25.08
63009;BMP280;49099;28.428;-16.488;2022-08-21T08:19:56;98635.75;;;25.12
63009;BMP280;49099;28.428;-16.488;2022-08-21T08:22:23;98632.81;;;25.10
63009;BMP280;49099;28.428;-16.488;2022-08-21T08:24:52;98628.19;;;25.10
63009;BMP280;49099;28.428;-16.488;2022-08-21T08:27:19;98631.81;;;25.13
63009;BMP280;49099;28.428;-16.488;2022-08-21T08:29:47;98623.25;;;25.14
63009;BMP280;49099;28.428;-16.488;2022-08-21T08:32:15;98624.41;;;25.19
63009;BMP280;49099;28.428;-16.488;2022-08-21T08:34:42;98627.31;;;25.21
63009;BMP280;49099;28.428;-16.488;2022-08-21T08:37:10;98618.75;;;25.22
63009;BMP280;49099;28.428;-16.488;2022-08-21T08:39:37;98626.88;;;25.17
63009;BMP280;49099;28.428;-16.488;2022-08-21T08:42:09;98620.41;;;25.07
63009;BMP280;49099;28.428;-16.488;2022-08-21T08:45:03;98623.78;;;24.89
63009;BMP280;49099;28.428;-16.488;2022-08-21T08:47:32;98631.31;;;24.72
63009;BMP280;49099;28.428;-16.488;2022-08-21T08:50:06;98633.88;;;24.59
63009;BMP280;49099;28.428;-16.488;2022-08-21T08:52:36;98621.81;;;24.47
63009;BMP280;49099;28.428;-16.488;2022-08-21T08:57:44;98624.03;;;24.43
63009;BMP280;49099;28.428;-16.488;2022-08-21T09:00:18;98632.56;;;24.47
63009;BMP280;49099;28.428;-16.488;2022-08-21T09:02:47;98622.03;;;24.49
63009;BMP280;49099;28.428;-16.488;2022-08-21T09:05:25;98631.97;;;24.54
63009;BMP280;49099;28.428;-16.488;2022-08-21T09:11:04;98638.69;;;24.66
63009;BMP280;49099;28.428;-16.488;2022-08-21T09:14:25;98636.13;;;24.79
63009;BMP280;49099;28.428;-16.488;2022-08-21T09:22:09;98640.00;;;24.83
63009;BMP280;49099;28.428;-16.488;2022-08-21T09:27:23;98631.84;;;24.89
63009;BMP280;49099;28.428;-16.488;2022-08-21T09:29:53;98641.53;;;24.97
63009;BMP280;49099;28.428;-16.488;2022-08-21T09:32:25;98651.09;;;24.93
63009;BMP280;49099;28.428;-16.488;2022-08-21T09:35:10;98646.56;;;24.82
63009;BMP280;49099;28.428;-16.488;2022-08-21T09:38:05;98650.00;;;24.83
63009;BMP280;49099;28.428;-16.488;2022-08-21T09:40:40;98650.94;;;24.85
63009;BMP280;49099;28.428;-16.488;2022-08-21T09:45:40;98659.41;;;24.95
63009;BMP280;49099;28.428;-16.488;2022-08-21T09:50:36;98659.81;;;24.99
63009;BMP280;49099;28.428;-16.488;2022-08-21T09:53:04;98664.34;;;25.09
63009;BMP280;49099;28.428;-16.488;2022-08-21T09:58:37;98671.91;;;25.29
63009;BMP280;49099;28.428;-16.488;2022-08-21T10:01:06;98679.94;;;25.35
63009;BMP280;49099;28.428;-16.488;2022-08-21T10:03:33;98680.66;;;25.54
63009;BMP280;49099;28.428;-16.488;2022-08-21T10:06:04;98688.38;;;25.63
63009;BMP280;49099;28.428;-16.488;2022-08-21T10:08:37;98690.81;;;25.79
63009;BMP280;49099;28.428;-16.488;2022-08-21T10:11:12;98694.28;;;25.93
63009;BMP280;49099;28.428;-16.488;2022-08-21T10:13:54;98698.91;;;26.11
63009;BMP280;49099;28.428;-16.488;2022-08-21T10:19:38;98703.34;;;26.09
63009;BMP280;49099;28.428;-16.488;2022-08-21T10:25:01;98715.41;;;26.34
63009;BMP280;49099;28.428;-16.488;2022-08-21T10:47:10;98711.75;;;28.02
63009;BMP280;49099;28.428;-16.488;2022-08-21T10:49:51;98710.44;;;28.16
63009;BMP280;49099;28.428;-16.488;2022-08-21T10:55:14;98711.69;;;28.36
63009;BMP280;49099;28.428;-16.488;2022-08-21T10:57:47;98711.50;;;28.41
63009;BMP280;49099;28.428;-16.488;2022-08-21T11:00:23;98711.69;;;28.43
63009;BMP280;49099;28.428;-16.488;2022-08-21T11:03:03;98712.69;;;28.53
63009;BMP280;49099;28.428;-16.488;2022-08-21T11:05:35;98698.00;;;28.69
63009;BMP280;49099;28.428;-16.488;2022-08-21T11:08:06;98702.78;;;28.84
63009;BMP280;49099;28.428;-16.488;2022-08-21T11:13:17;98694.94;;;29.08
63009;BMP280;49099;28.428;-16.488;2022-08-21T11:16:00;98689.19;;;29.19
63009;BMP280;49099;28.428;-16.488;2022-08-21T11:18:45;98680.94;;;29.32
63009;BMP280;49099;28.428;-16.488;2022-08-21T11:21:48;98695.59;;;29.44
63009;BMP280;49099;28.428;-16.488;2022-08-21T11:25:35;98688.56;;;29.56
63009;BMP280;49099;28.428;-16.488;2022-08-21T11:27:50;98679.91;;;29.65
63009;BMP280;49099;28.428;-16.488;2022-08-21T11:30:19;98671.97;;;29.67
63009;BMP280;49099;28.428;-16.488;2022-08-21T11:35:46;98675.03;;;29.86
63009;BMP280;49099;28.428;-16.488;2022-08-21T11:38:35;98671.81;;;29.95
63009;BMP280;49099;28.428;-16.488;2022-08-21T11:53:04;98652.63;;;30.23
63009;BMP280;49099;28.428;-16.488;2022-08-21T11:55:55;98646.78;;;30.27
63009;BMP280;49099;28.428;-16.488;2022-08-21T11:58:45;98646.63;;;30.32
63009;BMP280;49099;28.428;-16.488;2022-08-21T12:01:21;98652.56;;;30.38
63009;BMP280;49099;28.428;-16.488;2022-08-21T12:04:15;98643.34;;;30.41
63009;BMP280;49099;28.428;-16.488;2022-08-21T12:06:44;98643.34;;;30.41
63009;BMP280;49099;28.428;-16.488;2022-08-21T12:12:30;98639.50;;;30.52
63009;BMP280;49099;28.428;-16.488;2022-08-21T12:15:27;98639.69;;;30.54
63009;BMP280;49099;28.428;-16.488;2022-08-21T12:18:02;98632.97;;;30.55
63009;BMP280;49099;28.428;-16.488;2022-08-21T12:20:56;98629.06;;;30.48
63009;BMP280;49099;28.428;-16.488;2022-08-21T12:23:27;98625.03;;;30.49
63009;BMP280;49099;28.428;-16.488;2022-08-21T12:28:31;98628.41;;;30.25
63009;BMP280;49099;28.428;-16.488;2022-08-21T12:30:59;98621.50;;;30.24
63009;BMP280;49099;28.428;-16.488;2022-08-21T12:33:56;98624.00;;;30.37
63009;BMP280;49099;28.428;-16.488;2022-08-21T12:36:35;98609.13;;;30.53
63009;BMP280;49099;28.428;-16.488;2022-08-21T12:39:11;98611.59;;;30.66
63009;BMP280;49099;28.428;-16.488;2022-08-21T12:41:51;98608.63;;;30.79
63009;BMP280;49099;28.428;-16.488;2022-08-21T12:44:51;98604.28;;;30.84
63009;BMP280;49099;28.428;-16.488;2022-08-21T12:47:33;98602.97;;;30.92
63009;BMP280;49099;28.428;-16.488;2022-08-21T12:50:08;98597.88;;;30.96
63009;BMP280;49099;28.428;-16.488;2022-08-21T12:52:41;98601.50;;;30.99
63009;BMP280;49099;28.428;-16.488;2022-08-21T12:55:13;98597.09;;;31.03
63009;BMP280;49099;28.428;-16.488;2022-08-21T12:57:42;98585.88;;;31.07
63009;BMP280;49099;28.428;-16.488;2022-08-21T13:00:12;98583.44;;;31.18
63009;BMP280;49099;28.428;-16.488;2022-08-21T13:02:47;98585.84;;;31.31
63009;BMP280;49099;28.428;-16.488;2022-08-21T13:05:29;98580.94;;;31.37
63009;BMP280;49099;28.428;-16.488;2022-08-21T13:07:58;98574.63;;;31.35
63009;BMP280;49099;28.428;-16.488;2022-08-21T13:10:29;98578.94;;;31.13
63009;BMP280;49099;28.428;-16.488;2022-08-21T13:13:03;98575.66;;;30.90
63009;BMP280;49099;28.428;-16.488;2022-08-21T13:15:40;98566.69;;;30.80
63009;BMP280;49099;28.428;-16.488;2022-08-21T13:18:24;98560.91;;;30.76
63009;BMP280;49099;28.428;-16.488;2022-08-21T13:20:52;98562.47;;;30.62
63009;BMP280;49099;28.428;-16.488;2022-08-21T13:23:30;98563.22;;;30.55
63009;BMP280;49099;28.428;-16.488;2022-08-21T13:25:57;98557.56;;;30.61
63009;BMP280;49099;28.428;-16.488;2022-08-21T13:28:33;98551.53;;;30.77
63009;BMP280;49099;28.428;-16.488;2022-08-21T13:31:00;98548.44;;;31.05
63009;BMP280;49099;28.428;-16.488;2022-08-21T13:33:30;98553.38;;;31.24
63009;BMP280;49099;28.428;-16.488;2022-08-21T13:38:38;98547.13;;;31.14
63009;BMP280;49099;28.428;-16.488;2022-08-21T13:43:56;98544.84;;;31.44
63009;BMP280;49099;28.428;-16.488;2022-08-21T13:46:28;98544.50;;;31.65
63009;BMP280;49099;28.428;-16.488;2022-08-21T13:48:56;98555.75;;;31.78
63009;BMP280;49099;28.428;-16.488;2022-08-21T13:51:24;98552.38;;;31.87
63009;BMP280;49099;28.428;-16.488;2022-08-21T13:53:52;98556.53;;;32.05
63009;BMP280;49099;28.428;-16.488;2022-08-21T13:56:32;98551.38;;;32.26
63009;BMP280;49099;28.428;-16.488;2022-08-21T13:59:01;98548.44;;;32.41
63009;BMP280;49099;28.428;-16.488;2022-08-21T14:04:08;98556.75;;;32.70
63009;BMP280;49099;28.428;-16.488;2022-08-21T14:06:41;98566.75;;;32.67
63009;BMP280;49099;28.428;-16.488;2022-08-21T14:09:39;98559.38;;;32.51
63009;BMP280;49099;28.428;-16.488;2022-08-21T14:12:15;98559.16;;;32.56
63009;BMP280;49099;28.428;-16.488;2022-08-21T14:14:50;98550.06;;;32.80
63009;BMP280;49099;28.428;-16.488;2022-08-21T14:17:32;98562.50;;;32.74
63009;BMP280;49099;28.428;-16.488;2022-08-21T14:19:59;98571.66;;;32.42
63009;BMP280;49099;28.428;-16.488;2022-08-21T14:22:40;98571.50;;;31.97
63009;BMP280;49099;28.428;-16.488;2022-08-21T14:25:13;98569.94;;;31.52
63009;BMP280;49099;28.428;-16.488;2022-08-21T14:27:50;98567.53;;;31.56
63009;BMP280;49099;28.428;-16.488;2022-08-21T14:30:30;98564.78;;;31.81
63009;BMP280;49099;28.428;-16.488;2022-08-21T14:32:58;98576.47;;;31.49
63009;BMP280;49099;28.428;-16.488;2022-08-21T14:35:26;98565.84;;;31.44
63009;BMP280;49099;28.428;-16.488;2022-08-21T14:37:54;98575.53;;;31.54
63009;BMP280;49099;28.428;-16.488;2022-08-21T14:40:23;98572.34;;;31.48
63009;BMP280;49099;28.428;-16.488;2022-08-21T14:42:51;98584.41;;;31.30
63009;BMP280;49099;28.428;-16.488;2022-08-21T14:47:53;98586.75;;;31.09
63009;BMP280;49099;28.428;-16.488;2022-08-21T14:50:21;98586.91;;;31.36
63009;BMP280;49099;28.428;-16.488;2022-08-21T14:52:48;98583.69;;;31.54
63009;BMP280;49099;28.428;-16.488;2022-08-21T14:55:18;98592.84;;;31.83
63009;BMP280;49099;28.428;-16.488;2022-08-21T14:57:50;98587.69;;;32.04
63009;BMP280;49099;28.428;-16.488;2022-08-21T15:00:20;98590.47;;;32.14
63009;BMP280;49099;28.428;-16.488;2022-08-21T15:03:02;98602.72;;;32.05
63009;BMP280;49099;28.428;-16.488;2022-08-21T15:05:29;98614.88;;;32.04
63009;BMP280;49099;28.428;-16.488;2022-08-21T15:08:00;98620.22;;;32.12
63009;BMP280;49099;28.428;-16.488;2022-08-21T15:10:27;98619.13;;;32.15
63009;BMP280;49099;28.428;-16.488;2022-08-21T15:12:56;98626.84;;;32.18
63009;BMP280;49099;28.428;-16.488;2022-08-21T15:15:24;98624.94;;;32.11
63009;BMP280;49099;28.428;-16.488;2022-08-21T15:17:51;98620.28;;;32.21
63009;BMP280;49099;28.428;-16.488;2022-08-21T15:20:18;98620.28;;;32.38
63009;BMP280;49099;28.428;-16.488;2022-08-21T15:22:45;98613.84;;;32.60
63009;BMP280;49099;28.428;-16.488;2022-08-21T15:25:23;98608.06;;;32.83
63009;BMP280;49099;28.428;-16.488;2022-08-21T15:27:50;98623.97;;;32.86
63009;BMP280;49099;28.428;-16.488;2022-08-21T15:30:17;98619.69;;;32.57
63009;BMP280;49099;28.428;-16.488;2022-08-21T15:32:45;98610.03;;;32.46